createdAt,value
2017-12-20T00:01:46.912Z,12.50
2017-12-20T00:04:13.908Z,13.70
2017-12-20T00:06:40.197Z,14.63
2017-12-20T00:09:07.219Z,12.97
2017-12-20T00:11:33.458Z,12.90
2017-12-20T00:14:00.483Z,11.30
2017-12-20T00:16:26.778Z,12.13
2017-12-20T00:18:53.050Z,12.33
2017-12-20T00:21:19.348Z,11.57
2017-12-20T00:23:45.639Z,12.40
2017-12-20T00:26:12.682Z,11.80
2017-12-20T00:28:39.671Z,13.57
2017-12-20T00:31:05.913Z,13.33
2017-12-20T00:33:32.171Z,11.93
2017-12-20T00:35:58.406Z,11.40
2017-12-20T00:38:24.684Z,12.43
2017-12-20T00:40:50.986Z,14.93
2017-12-20T00:43:17.971Z,14.00
2017-12-20T00:45:44.239Z,12.33
2017-12-20T00:48:11.227Z,13.53
2017-12-20T00:50:37.494Z,14.43
2017-12-20T00:53:03.790Z,14.90
2017-12-20T00:55:30.041Z,15.40
2017-12-20T00:57:56.315Z,12.33
2017-12-20T01:00:23.321Z,14.30
2017-12-20T01:02:49.675Z,13.93
2017-12-20T01:05:15.919Z,14.87
2017-12-20T01:07:42.994Z,15.33
2017-12-20T01:10:09.492Z,14.10
2017-12-20T01:12:35.772Z,16.30
2017-12-20T01:15:02.066Z,17.30
2017-12-20T01:17:29.070Z,15.20
2017-12-20T01:19:55.332Z,15.87
2017-12-20T01:22:22.201Z,15.77
2017-12-20T01:24:49.196Z,16.13
2017-12-20T01:27:15.444Z,16.70
2017-12-20T01:29:41.724Z,15.70
2017-12-20T01:32:07.955Z,15.20
2017-12-20T01:34:34.303Z,16.53
2017-12-20T01:37:00.559Z,17.70
2017-12-20T01:39:26.845Z,15.27
2017-12-20T01:41:53.069Z,14.30
2017-12-20T01:44:19.318Z,14.30
2017-12-20T01:46:45.583Z,15.80
2017-12-20T01:49:11.917Z,12.97
2017-12-20T01:51:38.161Z,12.70
2017-12-20T01:54:05.165Z,12.90
2017-12-20T01:56:31.402Z,13.60
2017-12-20T01:58:57.653Z,12.37
2017-12-20T02:01:23.954Z,11.27
2017-12-20T02:03:50.581Z,12.40
2017-12-20T02:06:17.064Z,12.67
2017-12-20T02:08:43.416Z,12.43
2017-12-20T02:11:09.712Z,12.03
2017-12-20T02:13:35.987Z,12.07
2017-12-20T02:16:02.281Z,12.30
2017-12-20T02:18:28.512Z,12.73
2017-12-20T02:20:55.549Z,10.70
2017-12-20T02:23:21.960Z,12.07
2017-12-20T02:25:48.200Z,11.63
2017-12-20T02:28:14.440Z,11.80
2017-12-20T02:30:40.685Z,10.33
2017-12-20T02:36:10.292Z,9.93
2017-12-20T02:38:37.361Z,9.77
2017-12-20T02:41:12.371Z,9.23
2017-12-20T02:43:38.668Z,10.40
2017-12-20T02:46:04.940Z,8.90
2017-12-20T02:48:31.544Z,8.27
2017-12-20T02:50:58.093Z,8.90
2017-12-20T02:53:24.367Z,9.20
2017-12-20T02:55:51.450Z,8.57
2017-12-20T02:58:17.708Z,8.43
2017-12-20T03:00:43.996Z,7.10
2017-12-20T03:03:10.506Z,8.83
2017-12-20T03:05:36.793Z,8.50
2017-12-20T03:08:04.242Z,7.67
2017-12-20T03:10:30.572Z,6.87
2017-12-20T03:12:56.807Z,8.23
2017-12-20T03:15:23.342Z,9.33
2017-12-20T03:17:49.778Z,9.27
2017-12-20T03:20:16.501Z,9.47
2017-12-20T03:22:42.869Z,8.63
2017-12-20T03:25:09.119Z,8.80
2017-12-20T03:27:35.409Z,11.10
2017-12-20T03:30:01.648Z,10.90
2017-12-20T03:32:27.935Z,10.23
2017-12-20T03:34:55.039Z,10.40
2017-12-20T03:37:21.277Z,9.60
2017-12-20T03:39:47.595Z,9.23
2017-12-20T03:42:13.871Z,8.77
2017-12-20T03:44:40.912Z,9.93
2017-12-20T03:47:07.926Z,8.43
2017-12-20T03:49:34.436Z,12.20
2017-12-20T03:52:00.740Z,10.23
2017-12-20T03:54:27.018Z,9.90
2017-12-20T03:56:53.261Z,10.20
2017-12-20T03:59:19.798Z,9.30
2017-12-20T04:01:46.084Z,10.90
2017-12-20T04:04:12.328Z,12.40
2017-12-20T04:06:38.625Z,9.90
2017-12-20T04:09:04.944Z,10.27
2017-12-20T04:11:31.996Z,9.73
2017-12-20T04:13:58.234Z,11.17
2017-12-20T04:16:24.676Z,9.47
2017-12-20T04:18:51.017Z,9.40
2017-12-20T04:21:17.284Z,9.43
2017-12-20T04:23:44.359Z,9.03
2017-12-20T04:26:10.709Z,9.80
2017-12-20T04:28:36.947Z,9.10
2017-12-20T04:31:03.225Z,9.07
2017-12-20T04:33:29.498Z,8.73
2017-12-20T04:35:55.739Z,9.57
2017-12-20T04:38:21.993Z,9.00
2017-12-20T04:40:48.261Z,10.40
2017-12-20T04:43:15.315Z,8.73
2017-12-20T04:45:42.328Z,9.30
2017-12-20T04:48:08.614Z,9.43
2017-12-20T04:50:34.856Z,10.37
2017-12-20T04:53:01.176Z,9.23
2017-12-20T04:55:27.407Z,10.80
2017-12-20T04:57:53.707Z,11.37
2017-12-20T05:00:20.756Z,9.10
2017-12-20T05:02:47.766Z,10.10
2017-12-20T05:05:14.103Z,10.13
2017-12-20T05:07:40.344Z,8.53
2017-12-20T05:10:06.572Z,9.40
2017-12-20T05:12:32.874Z,11.77
2017-12-20T05:14:59.099Z,11.40
2017-12-20T05:17:25.382Z,11.90
2017-12-20T05:19:52.408Z,9.83
2017-12-20T05:22:18.668Z,10.60
2017-12-20T05:24:45.698Z,11.67
2017-12-20T05:27:12.701Z,11.33
2017-12-20T05:29:38.981Z,11.67
2017-12-20T05:32:06.009Z,11.73
2017-12-20T05:34:32.264Z,11.87
2017-12-20T05:36:59.287Z,11.77
2017-12-20T05:39:25.627Z,12.50
2017-12-20T05:41:51.898Z,12.40
2017-12-20T05:44:18.193Z,13.00
2017-12-20T05:46:45.213Z,13.20
2017-12-20T05:49:11.463Z,11.17
2017-12-20T05:51:39.304Z,12.03
2017-12-20T05:54:05.575Z,11.80
2017-12-20T05:56:32.576Z,10.80
2017-12-20T05:58:58.870Z,11.50
2017-12-20T06:01:25.130Z,11.87
2017-12-20T06:03:51.412Z,10.50
2017-12-20T06:06:18.434Z,10.20
2017-12-20T06:08:44.788Z,11.20
2017-12-20T06:11:11.787Z,10.60
2017-12-20T06:13:38.069Z,10.80
2017-12-20T06:16:05.090Z,9.67
2017-12-20T06:18:31.325Z,12.40
2017-12-20T06:20:57.576Z,11.20
2017-12-20T06:23:23.911Z,10.50
2017-12-20T06:25:50.925Z,10.73
2017-12-20T06:28:18.686Z,10.27
2017-12-20T06:30:44.951Z,10.40
2017-12-20T06:33:11.963Z,8.93
2017-12-20T06:35:38.258Z,9.70
2017-12-20T06:38:11.096Z,10.00
2017-12-20T06:40:37.627Z,10.57
2017-12-20T06:43:03.975Z,10.33
2017-12-20T06:45:31.001Z,12.33
2017-12-20T06:47:57.294Z,11.63
2017-12-20T06:50:23.559Z,10.53
2017-12-20T06:52:49.823Z,10.77
2017-12-20T06:55:16.851Z,11.13
2017-12-20T06:57:43.857Z,10.77
2017-12-20T07:00:10.141Z,12.57
2017-12-20T07:02:37.157Z,10.07
2017-12-20T07:05:03.464Z,10.20
2017-12-20T07:07:29.727Z,10.53
2017-12-20T07:09:56.062Z,12.10
2017-12-20T07:12:22.284Z,11.50
2017-12-20T07:14:48.586Z,9.17
2017-12-20T07:17:14.886Z,11.60
2017-12-20T07:19:41.150Z,9.87
2017-12-20T07:22:07.411Z,10.80
2017-12-20T07:24:33.724Z,8.43
2017-12-20T07:26:59.977Z,9.07
2017-12-20T07:29:26.942Z,10.47
2017-12-20T07:31:53.236Z,10.27
2017-12-20T07:34:19.498Z,11.83
2017-12-20T07:36:46.503Z,11.10
2017-12-20T07:39:12.880Z,10.67
2017-12-20T07:41:39.863Z,10.57
2017-12-20T07:44:06.139Z,9.83
2017-12-20T07:46:33.183Z,10.87
2017-12-20T07:48:59.465Z,10.83
2017-12-20T07:51:25.705Z,11.67
2017-12-20T07:53:51.975Z,8.80
2017-12-20T07:56:18.991Z,12.10
2017-12-20T07:58:45.287Z,8.50
2017-12-20T08:01:11.581Z,11.43
2017-12-20T08:03:38.577Z,11.20
2017-12-20T08:06:04.852Z,10.07
2017-12-20T08:08:31.173Z,11.10
2017-12-20T08:10:57.499Z,11.90
2017-12-20T08:13:24.502Z,11.47
2017-12-20T08:15:50.806Z,12.23
2017-12-20T08:18:17.823Z,12.27
2017-12-20T08:20:44.072Z,11.60
2017-12-20T08:23:10.352Z,10.83
2017-12-20T08:25:36.576Z,12.83
2017-12-20T08:28:02.944Z,13.07
2017-12-20T08:30:29.250Z,13.80
2017-12-20T08:32:55.513Z,13.47
2017-12-20T08:35:21.820Z,13.23
2017-12-20T08:37:48.131Z,17.00
2017-12-20T08:40:14.391Z,17.37
2017-12-20T08:42:40.665Z,15.93
2017-12-20T08:45:06.946Z,14.47
2017-12-20T08:47:33.299Z,15.53
2017-12-20T08:49:59.516Z,15.80
2017-12-20T08:52:25.749Z,15.17
2017-12-20T08:54:52.059Z,12.90
2017-12-20T08:57:18.312Z,12.83
2017-12-20T08:59:44.611Z,15.70
2017-12-20T09:02:10.871Z,14.20
2017-12-20T09:04:37.150Z,15.13
2017-12-20T09:07:03.421Z,13.10
2017-12-20T09:09:29.717Z,15.10
2017-12-20T09:11:56.005Z,14.67
2017-12-20T09:14:23.082Z,15.13
2017-12-20T09:16:49.373Z,15.03
2017-12-20T09:19:15.663Z,13.73
2017-12-20T09:21:41.954Z,13.83
2017-12-20T09:24:08.257Z,13.60
2017-12-20T09:26:34.533Z,13.00
2017-12-20T09:29:00.811Z,12.80
2017-12-20T09:31:27.083Z,14.50
2017-12-20T09:33:54.114Z,12.43
2017-12-20T09:36:21.162Z,14.30
2017-12-20T09:38:48.361Z,15.20
2017-12-20T09:41:14.714Z,14.00
2017-12-20T09:43:41.016Z,14.90
2017-12-20T09:46:07.316Z,12.53
2017-12-20T09:48:34.337Z,12.10
2017-12-20T09:51:00.613Z,12.77
2017-12-20T09:53:26.919Z,13.13
2017-12-20T09:55:53.188Z,13.90
2017-12-20T09:58:19.464Z,15.27
2017-12-20T10:00:45.741Z,15.20
2017-12-20T10:03:12.253Z,13.57
2017-12-20T10:05:39.302Z,14.20
2017-12-20T10:08:05.901Z,12.73
2017-12-20T10:10:32.979Z,13.27
2017-12-20T10:12:59.399Z,13.40
2017-12-20T10:15:26.585Z,12.80
2017-12-20T10:17:52.896Z,13.20
2017-12-20T10:20:19.394Z,12.73
2017-12-20T10:22:45.890Z,13.03
2017-12-20T10:25:12.122Z,14.83
2017-12-20T10:27:38.404Z,12.67
2017-12-20T10:30:04.671Z,12.23
2017-12-20T10:32:31.084Z,15.00
2017-12-20T10:34:58.210Z,14.73
2017-12-20T10:37:24.602Z,14.03
2017-12-20T10:39:50.883Z,15.10
2017-12-20T10:42:17.309Z,11.97
2017-12-20T10:44:43.816Z,13.00
2017-12-20T10:47:10.064Z,13.27
2017-12-20T10:49:36.506Z,12.63
2017-12-20T10:52:02.978Z,14.83
2017-12-20T10:54:30.090Z,13.00
2017-12-20T10:56:57.175Z,13.00
2017-12-20T10:59:23.570Z,12.60
2017-12-20T11:01:49.852Z,14.53
2017-12-20T11:04:16.149Z,13.77
2017-12-20T11:06:42.615Z,13.90
2017-12-20T11:09:09.165Z,15.17
2017-12-20T11:11:35.431Z,13.30
2017-12-20T11:14:02.945Z,14.33
2017-12-20T11:16:29.207Z,14.70
2017-12-20T11:18:55.535Z,14.80
2017-12-20T11:21:22.029Z,14.40
2017-12-20T11:23:48.391Z,13.93
2017-12-20T11:26:14.679Z,14.17
2017-12-20T11:28:41.720Z,15.80
2017-12-20T11:31:08.780Z,15.87
2017-12-20T11:33:35.847Z,15.07
2017-12-20T11:36:02.099Z,15.43
2017-12-20T11:38:28.348Z,14.27
2017-12-20T11:40:54.652Z,15.50
2017-12-20T11:43:21.086Z,15.43
2017-12-20T11:45:47.373Z,14.77
2017-12-20T11:48:14.362Z,15.83
2017-12-20T11:50:40.716Z,13.40
2017-12-20T11:53:07.666Z,14.17
2017-12-20T11:55:34.749Z,14.40
2017-12-20T11:58:01.776Z,11.90
2017-12-20T12:00:28.823Z,12.93
2017-12-20T12:02:55.147Z,16.47
2017-12-20T12:05:21.451Z,16.50
2017-12-20T12:07:47.778Z,16.73
2017-12-20T12:10:14.135Z,16.70
2017-12-20T12:12:40.418Z,16.40
2017-12-20T12:15:06.744Z,16.97
2017-12-20T12:17:33.156Z,10.40
2017-12-20T12:20:00.153Z,12.30
2017-12-20T12:22:26.449Z,10.13
2017-12-20T12:24:53.479Z,10.03
2017-12-20T12:27:20.502Z,10.63
2017-12-20T12:29:46.774Z,8.17
2017-12-20T12:32:13.139Z,8.93
2017-12-20T12:34:39.470Z,7.80
2017-12-20T12:37:05.795Z,7.93
2017-12-20T12:39:32.072Z,7.30
2017-12-20T12:41:58.329Z,8.10
2017-12-20T12:44:31.716Z,8.50
2017-12-20T12:46:58.734Z,8.60
2017-12-20T12:49:25.010Z,9.90
2017-12-20T12:51:51.312Z,6.83
2017-12-20T12:54:18.357Z,7.33
2017-12-20T12:56:44.654Z,7.20
2017-12-20T12:59:10.960Z,8.40
2017-12-20T13:01:37.254Z,10.53
2017-12-20T13:04:04.292Z,12.73
2017-12-20T13:06:30.568Z,14.50
2017-12-20T13:08:56.907Z,13.30
2017-12-20T13:11:23.188Z,15.10
2017-12-20T13:13:50.247Z,16.03
2017-12-20T13:16:17.325Z,15.50
2017-12-20T13:18:43.596Z,16.73
2017-12-20T13:21:09.965Z,16.57
2017-12-20T13:23:36.990Z,17.63
2017-12-20T13:26:04.516Z,18.23
2017-12-20T13:28:31.286Z,15.47
2017-12-20T13:30:57.620Z,16.00
2017-12-20T13:33:24.608Z,15.37
2017-12-20T13:35:50.861Z,15.50
2017-12-20T13:38:17.271Z,16.50
2017-12-20T13:40:44.718Z,15.80
2017-12-20T13:43:11.032Z,15.60
2017-12-20T13:45:38.064Z,16.17
2017-12-20T13:48:04.364Z,13.77
2017-12-20T13:50:30.891Z,14.63
2017-12-20T13:52:57.159Z,14.73
2017-12-20T13:55:23.474Z,13.30
2017-12-20T13:57:50.025Z,14.23
2017-12-20T14:00:16.546Z,13.27
2017-12-20T14:02:42.863Z,12.63
2017-12-20T14:05:09.132Z,14.20
2017-12-20T14:07:35.441Z,14.07
2017-12-20T14:10:01.745Z,13.83
2017-12-20T14:12:28.996Z,14.20
2017-12-20T14:14:55.345Z,17.10
2017-12-20T14:17:21.648Z,17.27
2017-12-20T14:19:47.950Z,16.53
2017-12-20T14:22:14.288Z,15.03
2017-12-20T14:24:40.563Z,17.40
2017-12-20T14:27:06.828Z,15.93
2017-12-20T14:29:33.091Z,16.43
2017-12-20T14:31:59.378Z,16.83
2017-12-20T14:34:25.707Z,16.20
2017-12-20T14:36:52.200Z,16.77
2017-12-20T14:39:18.604Z,17.10
2017-12-20T14:41:45.826Z,16.70
2017-12-20T14:44:12.068Z,16.63
2017-12-20T14:46:39.206Z,16.40
2017-12-20T14:49:05.522Z,14.10
2017-12-20T14:51:31.866Z,16.63
2017-12-20T14:53:58.138Z,15.50
2017-12-20T14:56:24.536Z,15.47
2017-12-20T14:58:50.784Z,14.53
2017-12-20T15:01:17.791Z,14.90
2017-12-20T15:03:44.039Z,15.23
2017-12-20T15:06:10.388Z,14.43
2017-12-20T15:08:37.459Z,16.23
2017-12-20T15:11:03.774Z,14.33
2017-12-20T15:13:30.827Z,12.50
2017-12-20T15:15:57.833Z,14.20
2017-12-20T15:18:24.181Z,12.60
2017-12-20T15:20:50.522Z,15.13
2017-12-20T15:23:17.554Z,14.97
2017-12-20T15:25:43.896Z,16.00
2017-12-20T15:28:10.964Z,13.60
2017-12-20T15:30:37.983Z,15.93
2017-12-20T15:33:04.300Z,18.90
2017-12-20T15:35:30.624Z,18.87
2017-12-20T15:37:56.920Z,17.83
2017-12-20T15:40:23.254Z,17.47
2017-12-20T15:42:49.506Z,17.80
2017-12-20T15:45:15.876Z,17.07
2017-12-20T15:47:42.162Z,18.73
2017-12-20T15:50:08.508Z,17.30
2017-12-20T15:52:34.812Z,17.03
2017-12-20T15:55:01.108Z,15.57
2017-12-20T15:57:28.238Z,16.30
2017-12-20T15:59:54.545Z,17.83
2017-12-20T16:02:20.874Z,15.33
2017-12-20T16:04:47.175Z,11.17
2017-12-20T16:07:13.544Z,10.37
2017-12-20T16:09:39.979Z,9.53
2017-12-20T16:12:06.315Z,11.00
2017-12-20T16:14:32.693Z,10.83
2017-12-20T16:17:00.193Z,9.97
2017-12-20T16:19:26.671Z,10.60
2017-12-20T16:21:53.688Z,9.80
2017-12-20T16:24:21.029Z,12.50
2017-12-20T16:26:47.365Z,12.27
2017-12-20T16:29:13.662Z,12.17
2017-12-20T16:31:39.964Z,13.13
2017-12-20T16:34:06.523Z,11.67
2017-12-20T16:36:32.940Z,9.87
2017-12-20T16:39:00.042Z,8.70
2017-12-20T16:41:26.482Z,9.87
2017-12-20T16:43:52.827Z,10.80
2017-12-20T16:46:19.381Z,10.63
2017-12-20T16:48:45.931Z,11.47
2017-12-20T16:51:12.943Z,11.50
2017-12-20T16:53:41.583Z,10.37
2017-12-20T16:56:07.997Z,10.60
2017-12-20T16:58:35.037Z,11.50
2017-12-20T17:01:02.088Z,9.63
2017-12-20T17:03:28.417Z,11.43
2017-12-20T17:05:55.438Z,12.10
2017-12-20T17:08:21.766Z,11.70
2017-12-20T17:10:48.074Z,11.47
2017-12-20T17:13:14.550Z,11.53
2017-12-20T17:15:41.628Z,11.10
2017-12-20T17:18:08.062Z,11.87
2017-12-20T17:20:34.376Z,13.50
2017-12-20T17:23:01.428Z,12.20
2017-12-20T17:25:28.882Z,15.30
2017-12-20T17:27:55.901Z,17.87
2017-12-20T17:30:22.177Z,15.80
2017-12-20T17:32:48.539Z,14.93
2017-12-20T17:35:14.863Z,12.70
2017-12-20T17:37:41.164Z,12.60
2017-12-20T17:40:07.489Z,13.70
2017-12-20T17:42:34.569Z,12.87
2017-12-20T17:45:00.857Z,15.53
2017-12-20T17:47:27.432Z,15.47
2017-12-20T17:49:54.431Z,16.00
2017-12-20T17:52:21.514Z,16.73
2017-12-20T17:54:47.826Z,16.10
2017-12-20T17:57:14.868Z,19.87
2017-12-20T17:59:41.914Z,19.83
2017-12-20T18:02:08.971Z,22.50
2017-12-20T18:04:36.067Z,21.67
2017-12-20T18:07:02.381Z,18.03
2017-12-20T18:09:28.677Z,19.60
2017-12-20T18:11:55.683Z,18.77
2017-12-20T18:14:22.019Z,17.77
2017-12-20T18:16:48.247Z,17.80
2017-12-20T18:19:14.546Z,19.20
2017-12-20T18:21:40.879Z,15.50
2017-12-20T18:24:07.153Z,17.70
2017-12-20T18:26:33.540Z,15.93
2017-12-20T18:28:59.839Z,16.17
2017-12-20T18:31:26.849Z,18.60
2017-12-20T18:33:53.182Z,16.43
2017-12-20T18:36:19.505Z,19.17
2017-12-20T18:38:45.824Z,19.40
2017-12-20T18:41:12.170Z,18.07
2017-12-20T18:43:38.451Z,19.23
2017-12-20T18:46:05.504Z,20.10
2017-12-20T18:48:32.544Z,19.33
2017-12-20T18:50:59.653Z,18.23
2017-12-20T18:53:25.967Z,19.83
2017-12-20T18:55:52.357Z,18.73
2017-12-20T18:58:19.584Z,17.63
2017-12-20T19:00:45.962Z,19.10
2017-12-20T19:03:12.311Z,19.67
2017-12-20T19:05:38.610Z,18.57
2017-12-20T19:08:05.009Z,20.07
2017-12-20T19:10:31.387Z,18.10
2017-12-20T19:12:57.697Z,17.90
2017-12-20T19:15:24.829Z,17.93
2017-12-20T19:17:51.131Z,18.17
2017-12-20T19:20:17.448Z,18.67
2017-12-20T19:22:43.756Z,19.90
2017-12-20T19:25:10.142Z,19.07
2017-12-20T19:27:37.239Z,19.07
2017-12-20T19:30:03.592Z,17.80
2017-12-20T19:32:29.917Z,18.53
2017-12-20T19:34:56.310Z,15.63
2017-12-20T19:37:22.694Z,15.83
2017-12-20T19:39:49.016Z,17.73
2017-12-20T19:42:15.300Z,18.20
2017-12-20T19:44:42.380Z,17.03
2017-12-20T19:47:08.770Z,19.37
2017-12-20T19:49:35.779Z,19.57
2017-12-20T19:52:02.257Z,20.50
2017-12-20T19:54:28.757Z,18.47
2017-12-20T19:56:55.148Z,17.40
2017-12-20T19:59:22.593Z,20.23
2017-12-20T20:01:49.712Z,19.63
2017-12-20T20:04:16.103Z,19.50
2017-12-20T20:06:42.511Z,19.40
2017-12-20T20:09:08.934Z,18.27
2017-12-20T20:11:42.443Z,18.67
2017-12-20T20:14:08.752Z,18.50
2017-12-20T20:16:35.039Z,18.83
2017-12-20T20:19:01.510Z,19.23
2017-12-20T20:21:27.909Z,18.40
2017-12-20T20:23:54.347Z,17.57
2017-12-20T20:26:20.808Z,18.90
2017-12-20T20:28:47.243Z,18.77
2017-12-20T20:31:13.549Z,18.87
2017-12-20T20:33:39.976Z,21.30
2017-12-20T20:36:06.363Z,21.30
2017-12-20T20:38:33.476Z,18.60
2017-12-20T20:41:00.032Z,20.93
2017-12-20T20:43:26.527Z,18.80
2017-12-20T20:45:52.967Z,18.07
2017-12-20T20:48:19.427Z,19.70
2017-12-20T20:50:46.682Z,22.97
2017-12-20T20:53:12.962Z,20.57
2017-12-20T20:55:39.454Z,19.53
2017-12-20T20:58:06.033Z,19.87
2017-12-20T21:00:32.513Z,18.73
2017-12-20T21:02:58.798Z,27.50
2017-12-20T21:05:25.199Z,21.13
2017-12-20T21:07:52.356Z,21.43
2017-12-20T21:10:19.560Z,20.67
2017-12-20T21:12:46.006Z,21.10
2017-12-20T21:15:12.472Z,22.47
2017-12-20T21:17:38.858Z,18.80
2017-12-20T21:20:05.279Z,19.40
2017-12-20T21:22:31.549Z,17.87
2017-12-20T21:24:57.868Z,19.80
2017-12-20T21:27:24.181Z,19.50
2017-12-20T21:29:50.526Z,21.03
2017-12-20T21:32:16.872Z,22.57
2017-12-20T21:34:43.235Z,22.03
2017-12-20T21:37:10.525Z,22.40
2017-12-20T21:39:36.826Z,20.40
2017-12-20T21:42:03.978Z,20.50
2017-12-20T21:44:31.028Z,20.00
2017-12-20T21:46:58.134Z,19.87
2017-12-20T21:49:24.526Z,19.90
2017-12-20T21:51:50.956Z,19.47
2017-12-20T21:54:17.270Z,20.37
2017-12-20T21:56:43.693Z,20.07
2017-12-20T21:59:10.709Z,20.80
2017-12-20T22:01:36.972Z,21.30
2017-12-20T22:04:04.152Z,22.83
2017-12-20T22:06:30.507Z,20.87
2017-12-20T22:08:56.826Z,20.53
2017-12-20T22:11:23.308Z,20.30
2017-12-20T22:13:49.730Z,19.10
2017-12-20T22:16:16.029Z,19.97
2017-12-20T22:18:42.290Z,19.77
2017-12-20T22:21:08.588Z,16.80
2017-12-20T22:23:34.986Z,18.93
2017-12-20T22:26:01.355Z,19.03
2017-12-20T22:28:27.640Z,15.57
2017-12-20T22:30:54.698Z,18.23
2017-12-20T22:33:21.725Z,17.77
2017-12-20T22:35:48.949Z,16.17
2017-12-20T22:38:15.363Z,12.33
2017-12-20T22:40:41.649Z,12.47
2017-12-20T22:43:08.937Z,14.83
2017-12-20T22:45:35.224Z,11.03
2017-12-20T22:48:01.453Z,15.87
2017-12-20T22:50:28.293Z,13.80
2017-12-20T22:52:54.566Z,13.77
2017-12-20T22:55:20.872Z,13.90
2017-12-20T22:57:47.950Z,12.27
2017-12-20T23:00:14.245Z,14.07
2017-12-20T23:02:41.382Z,13.20
2017-12-20T23:05:07.689Z,11.77
2017-12-20T23:07:33.962Z,11.50
2017-12-20T23:10:01.020Z,9.60
2017-12-20T23:12:27.293Z,9.60
2017-12-20T23:14:53.702Z,10.20
2017-12-20T23:17:20.063Z,10.40
2017-12-20T23:19:46.325Z,9.93
2017-12-20T23:22:12.743Z,10.17
2017-12-20T23:24:39.157Z,10.70
2017-12-20T23:27:05.623Z,8.67
2017-12-20T23:29:32.637Z,10.77
2017-12-20T23:31:58.911Z,10.33
2017-12-20T23:34:25.909Z,9.90
2017-12-20T23:36:52.216Z,9.00
2017-12-20T23:39:19.355Z,8.33
2017-12-20T23:41:45.641Z,9.60
2017-12-20T23:44:11.892Z,8.67
2017-12-20T23:46:38.978Z,9.30
2017-12-20T23:49:05.238Z,9.33
2017-12-20T23:51:31.504Z,8.90
2017-12-20T23:53:58.552Z,8.57
2017-12-20T23:56:25.572Z,8.20
2017-12-20T23:58:51.850Z,9.20
